Terminal Aerodrome Forecast
Issued by NWS

Home | Current Version | Previous Version | Text Only | Print | Product List | Glossary On
Versions: 1 2 3 4 5 6 7 8 9 10 11 12 13 14 15
000
FTUS43 KMPX 261122
TAFRNH
TAF
KRNH 261122Z 2612/2712 VRB03KT 6SM -RA BR BKN004 OVC008
     FM261600 26008KT P6SM OVC008
     FM262000 27009KT P6SM SCT009 BKN015 OVC035
     FM270100 29009KT P6SM BKN025 BKN035
     FM270900 30006KT P6SM SCT030=

USA.gov is the U.S. government's official web portal to all federal, state and local government web resources and services.